sensor_id;sensor_type;location;lat;lon;timestamp;pressure;altitude;pressure_sealevel;temperature;humidity
15529;BME280;7866;52.280;9.500;2024-03-23T00:57:00;99603.63;;;8.54;100.00
15529;BME280;7866;52.280;9.500;2024-03-23T01:02:01;99598.97;;;8.48;100.00
15529;BME280;7866;52.280;9.500;2024-03-23T01:07:03;99588.94;;;8.58;100.00
15529;BME280;7866;52.280;9.500;2024-03-23T01:12:07;99578.94;;;8.52;100.00
15529;BME280;7866;52.280;9.500;2024-03-23T01:17:08;99582.78;;;8.58;100.00
15529;BME280;7866;52.280;9.500;2024-03-23T01:22:10;99574.59;;;8.59;100.00
15529;BME280;7866;52.280;9.500;2024-03-23T01:27:14;99558.72;;;8.66;100.00
15529;BME280;7866;52.280;9.500;2024-03-23T01:32:15;99557.03;;;8.65;100.00
15529;BME280;7866;52.280;9.500;2024-03-23T01:37:18;99553.75;;;8.55;100.00
15529;BME280;7866;52.280;9.500;2024-03-23T01:42:21;99551.56;;;8.58;100.00
15529;BME280;7866;52.280;9.500;2024-03-23T01:47:23;99546.59;;;8.55;100.00
15529;BME280;7866;52.280;9.500;2024-03-23T01:52:24;99526.63;;;8.43;100.00
15529;BME280;7866;52.280;9.500;2024-03-23T01:57:29;99522.34;;;8.34;100.00
15529;BME280;7866;52.280;9.500;2024-03-23T02:02:31;99518.50;;;8.28;100.00
15529;BME280;7866;52.280;9.500;2024-03-23T02:07:32;99512.19;;;8.21;100.00
15529;BME280;7866;52.280;9.500;2024-03-23T02:12:36;99506.66;;;8.31;100.00
15529;BME280;7866;52.280;9.500;2024-03-23T02:17:38;99501.38;;;8.23;100.00
15529;BME280;7866;52.280;9.500;2024-03-23T02:22:40;99482.00;;;8.29;100.00
15529;BME280;7866;52.280;9.500;2024-03-23T02:27:43;99485.34;;;8.31;100.00
15529;BME280;7866;52.280;9.500;2024-03-23T02:32:44;99480.16;;;8.29;100.00
15529;BME280;7866;52.280;9.500;2024-03-23T02:37:46;99480.78;;;8.08;100.00
15529;BME280;7866;52.280;9.500;2024-03-23T02:42:51;99470.25;;;8.15;100.00
15529;BME280;7866;52.280;9.500;2024-03-23T02:47:53;99452.59;;;8.14;100.00
15529;BME280;7866;52.280;9.500;2024-03-23T02:52:54;99466.41;;;8.09;100.00
15529;BME280;7866;52.280;9.500;2024-03-23T02:57:57;99473.06;;;8.13;100.00
15529;BME280;7866;52.280;9.500;2024-03-23T03:03:02;99464.09;;;8.14;100.00
15529;BME280;7866;52.280;9.500;2024-03-23T03:08:05;99463.06;;;8.15;100.00
15529;BME280;7866;52.280;9.500;2024-03-23T03:13:08;99452.97;;;8.03;100.00
15529;BME280;7866;52.280;9.500;2024-03-23T03:18:09;99459.63;;;8.07;100.00
15529;BME280;7866;52.280;9.500;2024-03-23T03:23:11;99440.78;;;8.08;100.00
15529;BME280;7866;52.280;9.500;2024-03-23T03:28:14;99450.13;;;8.04;100.00
15529;BME280;7866;52.280;9.500;2024-03-23T03:33:16;99451.22;;;7.87;100.00
15529;BME280;7866;52.280;9.500;2024-03-23T03:38:18;99449.59;;;7.70;100.00
15529;BME280;7866;52.280;9.500;2024-03-23T03:43:21;99450.06;;;7.81;100.00
15529;BME280;7866;52.280;9.500;2024-03-23T03:48:23;99438.47;;;7.74;100.00
15529;BME280;7866;52.280;9.500;2024-03-23T03:53:25;99431.56;;;7.88;100.00
15529;BME280;7866;52.280;9.500;2024-03-23T03:58:28;99434.44;;;7.78;100.00
15529;BME280;7866;52.280;9.500;2024-03-23T04:03:29;99421.94;;;7.79;100.00
15529;BME280;7866;52.280;9.500;2024-03-23T04:08:31;99427.56;;;7.84;100.00
15529;BME280;7866;52.280;9.500;2024-03-23T04:13:34;99414.31;;;7.68;100.00
15529;BME280;7866;52.280;9.500;2024-03-23T04:18:36;99409.13;;;7.74;100.00
15529;BME280;7866;52.280;9.500;2024-03-23T04:23:37;99408.94;;;7.76;100.00
15529;BME280;7866;52.280;9.500;2024-03-23T04:28:40;99406.94;;;7.78;100.00
15529;BME280;7866;52.280;9.500;2024-03-23T04:33:42;99411.56;;;7.84;100.00
15529;BME280;7866;52.280;9.500;2024-03-23T04:38:46;99406.94;;;7.78;100.00
15529;BME280;7866;52.280;9.500;2024-03-23T04:43:51;99410.97;;;7.65;100.00
15529;BME280;7866;52.280;9.500;2024-03-23T04:48:53;99416.75;;;7.38;100.00
15529;BME280;7866;52.280;9.500;2024-03-23T04:53:56;99405.66;;;7.65;100.00
15529;BME280;7866;52.280;9.500;2024-03-23T04:58:59;99401.53;;;7.63;100.00
15529;BME280;7866;52.280;9.500;2024-03-23T05:04:02;99388.41;;;7.45;100.00
15529;BME280;7866;52.280;9.500;2024-03-23T05:09:04;99375.56;;;7.57;100.00
15529;BME280;7866;52.280;9.500;2024-03-23T05:14:09;99378.06;;;7.58;100.00
15529;BME280;7866;52.280;9.500;2024-03-23T05:19:11;99372.06;;;7.56;100.00
15529;BME280;7866;52.280;9.500;2024-03-23T05:24:12;99388.41;;;7.45;100.00
15529;BME280;7866;52.280;9.500;2024-03-23T05:29:15;99396.84;;;7.18;100.00
15529;BME280;7866;52.280;9.500;2024-03-23T05:34:17;99392.91;;;6.89;100.00
15529;BME280;7866;52.280;9.500;2024-03-23T05:39:19;99386.34;;;7.24;100.00
15529;BME280;7866;52.280;9.500;2024-03-23T05:44:24;99366.38;;;7.20;100.00
15529;BME280;7866;52.280;9.500;2024-03-23T05:49:25;99372.81;;;7.34;100.00
15529;BME280;7866;52.280;9.500;2024-03-23T05:54:27;99369.81;;;7.37;100.00
15529;BME280;7866;52.280;9.500;2024-03-23T05:59:30;99374.25;;;6.97;100.00
15529;BME280;7866;52.280;9.500;2024-03-23T06:04:32;99384.72;;;7.07;100.00
15529;BME280;7866;52.280;9.500;2024-03-23T06:09:33;99383.22;;;7.12;100.00
15529;BME280;7866;52.280;9.500;2024-03-23T06:14:36;99365.13;;;7.00;100.00
15529;BME280;7866;52.280;9.500;2024-03-23T06:19:38;99360.75;;;7.15;100.00
15529;BME280;7866;52.280;9.500;2024-03-23T06:24:39;99359.38;;;7.27;100.00
15529;BME280;7866;52.280;9.500;2024-03-23T06:29:42;99363.72;;;7.20;100.00
15529;BME280;7866;52.280;9.500;2024-03-23T06:34:44;99367.50;;;7.26;100.00
15529;BME280;7866;52.280;9.500;2024-03-23T06:39:46;99378.13;;;7.34;100.00
15529;BME280;7866;52.280;9.500;2024-03-23T06:44:49;99372.81;;;7.42;100.00
15529;BME280;7866;52.280;9.500;2024-03-23T06:49:50;99367.78;;;7.47;100.00
15529;BME280;7866;52.280;9.500;2024-03-23T06:54:52;99363.38;;;7.62;100.00
15529;BME280;7866;52.280;9.500;2024-03-23T06:59:55;99377.09;;;7.51;100.00
15529;BME280;7866;52.280;9.500;2024-03-23T07:04:57;99363.38;;;7.62;100.00
15529;BME280;7866;52.280;9.500;2024-03-23T07:09:58;99370.16;;;7.73;100.00
15529;BME280;7866;52.280;9.500;2024-03-23T07:15:01;99369.31;;;7.73;100.00
15529;BME280;7866;52.280;9.500;2024-03-23T07:20:03;99367.28;;;7.83;100.00
15529;BME280;7866;52.280;9.500;2024-03-23T07:25:05;99372.13;;;7.79;100.00
15529;BME280;7866;52.280;9.500;2024-03-23T07:30:09;99378.63;;;7.77;100.00
15529;BME280;7866;52.280;9.500;2024-03-23T07:35:11;99387.34;;;7.71;100.00
15529;BME280;7866;52.280;9.500;2024-03-23T07:40:12;99378.56;;;7.85;100.00
15529;BME280;7866;52.280;9.500;2024-03-23T07:45:15;99384.78;;;8.08;100.00
15529;BME280;7866;52.280;9.500;2024-03-23T07:50:17;99392.22;;;7.90;100.00
15529;BME280;7866;52.280;9.500;2024-03-23T07:55:18;99378.03;;;7.89;100.00
15529;BME280;7866;52.280;9.500;2024-03-23T08:00:23;99386.19;;;7.96;100.00
15529;BME280;7866;52.280;9.500;2024-03-23T08:05:26;99385.09;;;7.82;100.00
15529;BME280;7866;52.280;9.500;2024-03-23T08:10:27;99392.22;;;7.90;100.00
15529;BME280;7866;52.280;9.500;2024-03-23T08:15:31;99385.00;;;7.99;100.00
15529;BME280;7866;52.280;9.500;2024-03-23T08:20:34;99395.16;;;8.03;100.00
15529;BME280;7866;52.280;9.500;2024-03-23T08:25:35;99385.72;;;8.61;100.00
15529;BME280;7866;52.280;9.500;2024-03-23T08:30:38;99387.41;;;8.62;98.87
15529;BME280;7866;52.280;9.500;2024-03-23T08:35:41;99388.25;;;8.63;98.22
15529;BME280;7866;52.280;9.500;2024-03-23T08:40:42;99390.91;;;8.40;98.88
15529;BME280;7866;52.280;9.500;2024-03-23T08:45:45;99389.94;;;8.33;99.46
15529;BME280;7866;52.280;9.500;2024-03-23T08:50:47;99380.59;;;8.37;99.76
15529;BME280;7866;52.280;9.500;2024-03-23T08:55:53;99383.31;;;8.52;100.00
15529;BME280;7866;52.280;9.500;2024-03-23T09:01:00;99384.97;;;8.53;99.43
15529;BME280;7866;52.280;9.500;2024-03-23T09:06:07;99385.03;;;8.68;99.10
15529;BME280;7866;52.280;9.500;2024-03-23T09:11:10;99388.41;;;8.61;97.61
15529;BME280;7866;52.280;9.500;2024-03-23T09:16:13;99377.56;;;8.40;97.27
15529;BME280;7866;52.280;9.500;2024-03-23T09:21:15;99394.25;;;8.80;95.51
15529;BME280;7866;52.280;9.500;2024-03-23T09:26:16;99397.44;;;9.28;93.50
15529;BME280;7866;52.280;9.500;2024-03-23T09:31:19;99382.03;;;9.45;90.27
15529;BME280;7866;52.280;9.500;2024-03-23T09:36:21;99384.16;;;9.49;87.67
15529;BME280;7866;52.280;9.500;2024-03-23T09:41:23;99395.69;;;9.20;87.22
15529;BME280;7866;52.280;9.500;2024-03-23T09:46:25;99393.00;;;9.05;88.96
15529;BME280;7866;52.280;9.500;2024-03-23T09:51:28;99387.94;;;9.55;89.38
15529;BME280;7866;52.280;9.500;2024-03-23T09:56:30;99383.22;;;9.72;87.30
15529;BME280;7866;52.280;9.500;2024-03-23T10:01:34;99376.13;;;10.00;84.45
15529;BME280;7866;52.280;9.500;2024-03-23T10:06:36;99359.59;;;9.90;81.11
15529;BME280;7866;52.280;9.500;2024-03-23T10:11:37;99365.75;;;10.27;80.06
15529;BME280;7866;52.280;9.500;2024-03-23T10:16:41;99354.19;;;10.69;78.38
15529;BME280;7866;52.280;9.500;2024-03-23T10:21:52;99349.09;;;10.53;78.63
15529;BME280;7866;52.280;9.500;2024-03-23T10:26:56;99371.09;;;10.70;78.94
15529;BME280;7866;52.280;9.500;2024-03-23T10:32:12;99374.13;;;10.02;81.19
15529;BME280;7866;52.280;9.500;2024-03-23T10:37:13;99369.56;;;10.39;81.13
15529;BME280;7866;52.280;9.500;2024-03-23T10:42:15;99361.41;;;10.47;79.61
15529;BME280;7866;52.280;9.500;2024-03-23T10:47:20;99338.94;;;10.70;77.48
15529;BME280;7866;52.280;9.500;2024-03-23T10:52:22;99349.63;;;11.26;76.61
15529;BME280;7866;52.280;9.500;2024-03-23T10:57:29;99339.84;;;11.59;73.21
15529;BME280;7866;52.280;9.500;2024-03-23T11:02:34;99355.03;;;10.76;78.40
15529;BME280;7866;52.280;9.500;2024-03-23T11:07:36;99362.34;;;9.46;82.12
15529;BME280;7866;52.280;9.500;2024-03-23T11:12:37;99364.00;;;9.47;85.53
15529;BME280;7866;52.280;9.500;2024-03-23T11:17:40;99354.22;;;9.24;87.84
15529;BME280;7866;52.280;9.500;2024-03-23T11:22:43;99351.00;;;9.44;88.31
15529;BME280;7866;52.280;9.500;2024-03-23T11:27:48;99355.78;;;9.48;88.28
15529;BME280;7866;52.280;9.500;2024-03-23T11:32:52;99361.69;;;8.99;89.89
15529;BME280;7866;52.280;9.500;2024-03-23T11:38:05;99380.59;;;8.60;91.10
15529;BME280;7866;52.280;9.500;2024-03-23T11:43:08;99383.50;;;8.50;90.54
15529;BME280;7866;52.280;9.500;2024-03-23T11:48:13;99395.72;;;8.13;92.07
15529;BME280;7866;52.280;9.500;2024-03-23T11:53:16;99376.41;;;7.88;93.51
15529;BME280;7866;52.280;9.500;2024-03-23T11:58:19;99377.88;;;7.60;94.23
15529;BME280;7866;52.280;9.500;2024-03-23T12:03:24;99387.59;;;7.84;95.59
15529;BME280;7866;52.280;9.500;2024-03-23T12:08:30;99393.25;;;8.43;95.65
15529;BME280;7866;52.280;9.500;2024-03-23T12:13:33;99391.63;;;8.57;96.04
15529;BME280;7866;52.280;9.500;2024-03-23T12:18:36;99395.31;;;8.25;95.22
15529;BME280;7866;52.280;9.500;2024-03-23T12:23:39;99391.50;;;7.96;96.33
15529;BME280;7866;52.280;9.500;2024-03-23T12:28:40;99409.34;;;7.64;97.45
15529;BME280;7866;52.280;9.500;2024-03-23T12:33:43;99446.09;;;7.13;96.63
15529;BME280;7866;52.280;9.500;2024-03-23T12:38:45;99405.19;;;6.90;99.17
15529;BME280;7866;52.280;9.500;2024-03-23T12:43:47;99396.22;;;6.99;98.89
15529;BME280;7866;52.280;9.500;2024-03-23T12:48:50;99387.56;;;6.97;98.46
15529;BME280;7866;52.280;9.500;2024-03-23T12:53:52;99363.84;;;7.35;97.82
15529;BME280;7866;52.280;9.500;2024-03-23T12:58:53;99368.94;;;8.38;95.52
15529;BME280;7866;52.280;9.500;2024-03-23T13:03:58;99350.97;;;8.70;92.34
15529;BME280;7866;52.280;9.500;2024-03-23T13:09:01;99345.47;;;9.01;90.03
15529;BME280;7866;52.280;9.500;2024-03-23T13:14:03;99350.94;;;9.07;87.31
15529;BME280;7866;52.280;9.500;2024-03-23T13:19:06;99357.47;;;9.34;87.88
15529;BME280;7866;52.280;9.500;2024-03-23T13:24:08;99346.69;;;9.79;85.71
15529;BME280;7866;52.280;9.500;2024-03-23T13:29:10;99339.38;;;9.51;81.06
15529;BME280;7866;52.280;9.500;2024-03-23T13:34:13;99330.66;;;10.00;77.48
15529;BME280;7866;52.280;9.500;2024-03-23T13:39:15;99349.75;;;9.76;77.45
15529;BME280;7866;52.280;9.500;2024-03-23T13:44:17;99350.94;;;9.07;79.55
15529;BME280;7866;52.280;9.500;2024-03-23T13:49:26;99367.38;;;8.81;81.63
15529;BME280;7866;52.280;9.500;2024-03-23T13:54:28;99367.56;;;8.80;81.66
15529;BME280;7866;52.280;9.500;2024-03-23T13:59:30;99373.00;;;9.60;81.28
15529;BME280;7866;52.280;9.500;2024-03-23T14:04:32;99377.81;;;9.35;78.54
15529;BME280;7866;52.280;9.500;2024-03-23T14:09:34;99374.84;;;8.86;79.89
15529;BME280;7866;52.280;9.500;2024-03-23T14:14:36;99408.44;;;8.57;81.43
15529;BME280;7866;52.280;9.500;2024-03-23T14:19:39;99459.38;;;7.38;89.61
15529;BME280;7866;52.280;9.500;2024-03-23T14:24:40;99464.75;;;6.56;94.02
15529;BME280;7866;52.280;9.500;2024-03-23T14:29:45;99480.09;;;5.96;96.03
15529;BME280;7866;52.280;9.500;2024-03-23T14:34:48;99438.56;;;5.95;96.90
15529;BME280;7866;52.280;9.500;2024-03-23T14:39:52;99394.91;;;6.22;97.20
15529;BME280;7866;52.280;9.500;2024-03-23T14:44:53;99381.59;;;6.95;97.43
15529;BME280;7866;52.280;9.500;2024-03-23T14:49:56;99371.84;;;7.97;90.99
15529;BME280;7866;52.280;9.500;2024-03-23T14:54:59;99358.13;;;8.54;87.79
15529;BME280;7866;52.280;9.500;2024-03-23T15:00:00;99347.19;;;8.64;85.99
15529;BME280;7866;52.280;9.500;2024-03-23T15:05:07;99344.88;;;8.61;85.26
15529;BME280;7866;52.280;9.500;2024-03-23T15:10:10;99342.44;;;8.74;85.99
15529;BME280;7866;52.280;9.500;2024-03-23T15:15:12;99345.56;;;8.78;84.61
15529;BME280;7866;52.280;9.500;2024-03-23T15:20:16;99351.22;;;8.60;84.66
15529;BME280;7866;52.280;9.500;2024-03-23T15:25:18;99367.38;;;8.44;86.49
15529;BME280;7866;52.280;9.500;2024-03-23T15:30:19;99360.38;;;8.20;84.93
15529;BME280;7866;52.280;9.500;2024-03-23T15:35:22;99425.56;;;7.86;85.10
15529;BME280;7866;52.280;9.500;2024-03-23T15:40:24;99455.44;;;6.44;93.69
15529;BME280;7866;52.280;9.500;2024-03-23T15:45:26;99436.78;;;6.11;96.91
15529;BME280;7866;52.280;9.500;2024-03-23T15:50:29;99432.56;;;5.92;99.01
15529;BME280;7866;52.280;9.500;2024-03-23T15:55:30;99412.34;;;6.16;99.42
15529;BME280;7866;52.280;9.500;2024-03-23T16:00:36;99393.63;;;6.58;99.22
15529;BME280;7866;52.280;9.500;2024-03-23T16:05:39;99376.78;;;6.66;98.12
15529;BME280;7866;52.280;9.500;2024-03-23T16:10:40;99378.13;;;6.46;97.40
15529;BME280;7866;52.280;9.500;2024-03-23T16:15:42;99371.66;;;6.24;98.44
15529;BME280;7866;52.280;9.500;2024-03-23T16:20:52;99370.31;;;6.11;97.87
15529;BME280;7866;52.280;9.500;2024-03-23T16:25:54;99356.22;;;6.27;98.68
15529;BME280;7866;52.280;9.500;2024-03-23T16:31:01;99340.59;;;6.24;98.72
15529;BME280;7866;52.280;9.500;2024-03-23T16:36:05;99343.41;;;6.23;99.29
15529;BME280;7866;52.280;9.500;2024-03-23T16:41:08;99345.41;;;6.12;98.52
15529;BME280;7866;52.280;9.500;2024-03-23T16:46:14;99344.75;;;6.19;99.69
15529;BME280;7866;52.280;9.500;2024-03-23T16:51:17;99329.94;;;6.16;99.83
15529;BME280;7866;52.280;9.500;2024-03-23T16:56:19;99324.44;;;6.17;99.93
15529;BME280;7866;52.280;9.500;2024-03-23T17:01:20;99326.78;;;6.12;99.23
15529;BME280;7866;52.280;9.500;2024-03-23T17:06:25;99319.31;;;6.16;99.86
15529;BME280;7866;52.280;9.500;2024-03-23T17:11:27;99335.41;;;6.06;99.96
15529;BME280;7866;52.280;9.500;2024-03-23T17:16:28;99340.56;;;6.08;99.43
15529;BME280;7866;52.280;9.500;2024-03-23T17:21:33;99333.75;;;6.05;100.00
15529;BME280;7866;52.280;9.500;2024-03-23T17:26:35;99338.06;;;6.06;100.00
15529;BME280;7866;52.280;9.500;2024-03-23T17:31:37;99340.41;;;6.09;100.00
15529;BME280;7866;52.280;9.500;2024-03-23T17:36:40;99336.91;;;6.01;100.00
15529;BME280;7866;52.280;9.500;2024-03-23T17:41:42;99354.69;;;6.16;100.00
15529;BME280;7866;52.280;9.500;2024-03-23T17:46:43;99357.03;;;6.28;100.00
15529;BME280;7866;52.280;9.500;2024-03-23T17:51:49;99373.66;;;6.30;99.39
15529;BME280;7866;52.280;9.500;2024-03-23T17:56:50;99429.13;;;6.16;99.24
15529;BME280;7866;52.280;9.500;2024-03-23T18:01:52;99426.16;;;5.35;100.00
15529;BME280;7866;52.280;9.500;2024-03-23T18:06:55;99416.97;;;4.95;100.00
15529;BME280;7866;52.280;9.500;2024-03-23T18:11:57;99416.28;;;4.93;100.00
15529;BME280;7866;52.280;9.500;2024-03-23T18:16:58;99401.38;;;4.92;100.00
15529;BME280;7866;52.280;9.500;2024-03-23T18:22:01;99388.03;;;4.84;100.00
15529;BME280;7866;52.280;9.500;2024-03-23T18:27:03;99383.44;;;4.94;100.00
15529;BME280;7866;52.280;9.500;2024-03-23T18:32:06;99362.75;;;4.98;100.00
15529;BME280;7866;52.280;9.500;2024-03-23T18:37:09;99355.00;;;5.04;100.00
15529;BME280;7866;52.280;9.500;2024-03-23T18:42:10;99352.69;;;5.09;100.00
15529;BME280;7866;52.280;9.500;2024-03-23T18:47:12;99354.22;;;5.12;100.00
15529;BME280;7866;52.280;9.500;2024-03-23T18:52:15;99338.22;;;4.96;100.00
15529;BME280;7866;52.280;9.500;2024-03-23T18:57:16;99339.03;;;4.96;100.00
15529;BME280;7866;52.280;9.500;2024-03-23T19:02:18;99333.47;;;4.81;100.00
15529;BME280;7866;52.280;9.500;2024-03-23T19:07:21;99331.56;;;4.65;100.00
15529;BME280;7866;52.280;9.500;2024-03-23T19:12:23;99333.75;;;4.70;100.00
15529;BME280;7866;52.280;9.500;2024-03-23T19:17:26;99329.59;;;4.67;100.00
15529;BME280;7866;52.280;9.500;2024-03-23T19:22:29;99330.72;;;4.65;100.00
15529;BME280;7866;52.280;9.500;2024-03-23T19:27:31;99317.63;;;4.63;100.00
15529;BME280;7866;52.280;9.500;2024-03-23T19:32:33;99317.94;;;4.60;100.00
15529;BME280;7866;52.280;9.500;2024-03-23T19:37:36;99310.34;;;4.65;100.00
15529;BME280;7866;52.280;9.500;2024-03-23T19:42:38;99317.47;;;4.65;100.00
15529;BME280;7866;52.280;9.500;2024-03-23T19:47:40;99321.13;;;4.64;100.00
15529;BME280;7866;52.280;9.500;2024-03-23T19:52:43;99315.56;;;4.75;100.00
15529;BME280;7866;52.280;9.500;2024-03-23T19:57:45;99315.88;;;4.72;100.00
15529;BME280;7866;52.280;9.500;2024-03-23T20:02:46;99300.25;;;4.69;100.00
15529;BME280;7866;52.280;9.500;2024-03-23T20:07:49;99310.66;;;4.62;100.00
15529;BME280;7866;52.280;9.500;2024-03-23T20:12:51;99311.13;;;4.58;100.00
15529;BME280;7866;52.280;9.500;2024-03-23T20:17:52;99301.91;;;4.70;100.00
15529;BME280;7866;52.280;9.500;2024-03-23T20:22:55;99296.72;;;4.60;100.00
15529;BME280;7866;52.280;9.500;2024-03-23T20:27:57;99306.44;;;4.78;100.00
15529;BME280;7866;52.280;9.500;2024-03-23T20:32:59;99304.09;;;4.75;100.00
15529;BME280;7866;52.280;9.500;2024-03-23T20:38:02;99313.78;;;4.84;100.00
15529;BME280;7866;52.280;9.500;2024-03-23T20:43:07;99307.47;;;4.85;100.00
15529;BME280;7866;52.280;9.500;2024-03-23T20:48:08;99306.47;;;4.86;100.00
15529;BME280;7866;52.280;9.500;2024-03-23T20:53:12;99295.34;;;4.82;100.00
15529;BME280;7866;52.280;9.500;2024-03-23T20:58:13;99294.81;;;4.79;100.00
15529;BME280;7866;52.280;9.500;2024-03-23T21:03:15;99292.88;;;4.81;100.00
15529;BME280;7866;52.280;9.500;2024-03-23T21:08:18;99286.53;;;4.74;100.00
15529;BME280;7866;52.280;9.500;2024-03-23T21:13:20;99293.47;;;4.75;100.00
15529;BME280;7866;52.280;9.500;2024-03-23T21:18:22;99290.34;;;4.71;100.00
15529;BME280;7866;52.280;9.500;2024-03-23T21:23:26;99283.81;;;4.65;100.00
15529;BME280;7866;52.280;9.500;2024-03-23T21:28:28;99290.91;;;4.57;100.00
15529;BME280;7866;52.280;9.500;2024-03-23T21:33:29;99287.44;;;4.56;100.00
15529;BME280;7866;52.280;9.500;2024-03-23T21:38:32;99288.81;;;4.68;100.00
15529;BME280;7866;52.280;9.500;2024-03-23T21:43:34;99287.47;;;4.64;100.00
15529;BME280;7866;52.280;9.500;2024-03-23T21:48:35;99290.13;;;4.64;100.00
15529;BME280;7866;52.280;9.500;2024-03-23T21:53:38;99273.38;;;4.64;100.00
15529;BME280;7866;52.280;9.500;2024-03-23T21:58:40;99281.19;;;4.65;100.00
15529;BME280;7866;52.280;9.500;2024-03-23T22:03:42;99275.22;;;4.63;100.00
15529;BME280;7866;52.280;9.500;2024-03-23T22:08:45;99267.09;;;4.65;100.00
15529;BME280;7866;52.280;9.500;2024-03-23T22:13:47;99268.75;;;4.66;100.00
15529;BME280;7866;52.280;9.500;2024-03-23T22:18:49;99269.56;;;4.66;100.00
15529;BME280;7866;52.280;9.500;2024-03-23T22:23:52;99258.34;;;4.73;100.00
15529;BME280;7866;52.280;9.500;2024-03-23T22:28:53;99263.81;;;4.71;100.00
15529;BME280;7866;52.280;9.500;2024-03-23T22:33:55;99245.75;;;4.75;100.00
15529;BME280;7866;52.280;9.500;2024-03-23T22:38:58;99234.31;;;4.74;100.00
15529;BME280;7866;52.280;9.500;2024-03-23T22:44:00;99227.53;;;4.72;100.00
15529;BME280;7866;52.280;9.500;2024-03-23T22:49:01;99217.56;;;4.74;100.00
15529;BME280;7866;52.280;9.500;2024-03-23T22:54:06;99209.94;;;4.79;100.00
15529;BME280;7866;52.280;9.500;2024-03-23T22:59:08;99213.63;;;4.86;100.00
15529;BME280;7866;52.280;9.500;2024-03-23T23:04:09;99213.13;;;4.82;100.00
15529;BME280;7866;52.280;9.500;2024-03-23T23:09:12;99202.38;;;4.84;99.86
15529;BME280;7866;52.280;9.500;2024-03-23T23:14:14;99209.53;;;4.91;99.22
15529;BME280;7866;52.280;9.500;2024-03-23T23:19:16;99204.03;;;4.93;99.42
15529;BME280;7866;52.280;9.500;2024-03-23T23:24:21;99186.97;;;4.87;99.42
15529;BME280;7866;52.280;9.500;2024-03-23T23:29:22;99192.41;;;4.86;99.79
15529;BME280;7866;52.280;9.500;2024-03-23T23:34:24;99187.59;;;4.81;99.62
15529;BME280;7866;52.280;9.500;2024-03-23T23:39:27;99182.50;;;4.88;99.89
15529;BME280;7866;52.280;9.500;2024-03-23T23:44:29;99185.81;;;4.98;99.68
15529;BME280;7866;52.280;9.500;2024-03-23T23:49:30;99176.88;;;4.99;99.96
15529;BME280;7866;52.280;9.500;2024-03-23T23:54:33;99171.09;;;5.04;99.01
15529;BME280;7866;52.280;9.500;2024-03-23T23:59:35;99169.91;;;4.98;99.48
